sensor_id;sensor_type;location;lat;lon;timestamp;pressure;altitude;pressure_sealevel;temperature;humidity
60654;BME280;46476;53.614;10.048;2022-09-28T00:02:04;99296.81;;;13.79;61.78
60654;BME280;46476;53.614;10.048;2022-09-28T00:04:30;99297.88;;;13.78;61.58
60654;BME280;46476;53.614;10.048;2022-09-28T00:06:57;99290.97;;;13.75;61.73
60654;BME280;46476;53.614;10.048;2022-09-28T00:09:22;99286.97;;;13.71;62.25
60654;BME280;46476;53.614;10.048;2022-09-28T00:11:47;99289.50;;;13.73;61.93
60654;BME280;46476;53.614;10.048;2022-09-28T00:14:13;99293.25;;;13.72;62.08
60654;BME280;46476;53.614;10.048;2022-09-28T00:16:42;99291.16;;;13.74;61.79
60654;BME280;46476;53.614;10.048;2022-09-28T00:19:08;99297.44;;;13.74;61.44
60654;BME280;46476;53.614;10.048;2022-09-28T00:21:36;99290.34;;;13.73;61.41
60654;BME280;46476;53.614;10.048;2022-09-28T00:24:03;99289.50;;;13.73;61.68
60654;BME280;46476;53.614;10.048;2022-09-28T00:26:55;99289.91;;;13.69;61.74
60654;BME280;46476;53.614;10.048;2022-09-28T00:29:24;99280.28;;;13.67;62.00
60654;BME280;46476;53.614;10.048;2022-09-28T00:31:55;99277.78;;;13.65;61.76
60654;BME280;46476;53.614;10.048;2022-09-28T00:34:25;99285.72;;;13.67;61.64
60654;BME280;46476;53.614;10.048;2022-09-28T00:36:50;99280.28;;;13.67;61.64
60654;BME280;46476;53.614;10.048;2022-09-28T00:39:16;99270.25;;;13.67;61.52
60654;BME280;46476;53.614;10.048;2022-09-28T00:41:43;99278.59;;;13.66;61.46
60654;BME280;46476;53.614;10.048;2022-09-28T00:50:06;99275.25;;;13.64;61.48
60654;BME280;46476;53.614;10.048;2022-09-28T00:52:52;99274.41;;;13.63;61.32
60654;BME280;46476;53.614;10.048;2022-09-28T00:55:25;99268.16;;;13.63;61.36
60654;BME280;46476;53.614;10.048;2022-09-28T00:57:57;99267.50;;;13.61;61.61
60654;BME280;46476;53.614;10.048;2022-09-28T01:00:23;99261.25;;;13.60;61.61
60654;BME280;46476;53.614;10.048;2022-09-28T01:02:49;99256.00;;;13.59;61.44
60654;BME280;46476;53.614;10.048;2022-09-28T01:05:15;99252.03;;;13.61;61.68
60654;BME280;46476;53.614;10.048;2022-09-28T01:07:43;99252.47;;;13.65;61.47
60654;BME280;46476;53.614;10.048;2022-09-28T01:10:09;99252.66;;;13.63;61.81
60654;BME280;46476;53.614;10.048;2022-09-28T01:12:34;99253.91;;;13.61;61.43
60654;BME280;46476;53.614;10.048;2022-09-28T01:15:00;99251.41;;;13.59;61.59
60654;BME280;46476;53.614;10.048;2022-09-28T01:17:52;99246.59;;;13.61;61.48
60654;BME280;46476;53.614;10.048;2022-09-28T01:20:32;99248.06;;;13.57;61.66
60654;BME280;46476;53.614;10.048;2022-09-28T01:26:17;99246.59;;;13.55;61.45
60654;BME280;46476;53.614;10.048;2022-09-28T01:28:58;99245.13;;;13.52;61.71
60654;BME280;46476;53.614;10.048;2022-09-28T01:31:29;99249.31;;;13.55;61.53
60654;BME280;46476;53.614;10.048;2022-09-28T01:34:00;99249.50;;;13.53;61.60
60654;BME280;46476;53.614;10.048;2022-09-28T01:36:39;99252.22;;;13.53;61.61
60654;BME280;46476;53.614;10.048;2022-09-28T01:39:19;99252.22;;;13.53;61.31
60654;BME280;46476;53.614;10.048;2022-09-28T01:41:49;99242.41;;;13.52;61.29
60654;BME280;46476;53.614;10.048;2022-09-28T01:44:18;99245.31;;;13.50;61.17
60654;BME280;46476;53.614;10.048;2022-09-28T01:46:47;99243.44;;;13.51;61.30
60654;BME280;46476;53.614;10.048;2022-09-28T01:49:19;99252.66;;;13.50;60.97
60654;BME280;46476;53.614;10.048;2022-09-28T01:51:54;99240.31;;;13.47;61.27
60654;BME280;46476;53.614;10.048;2022-09-28T01:54:29;99238.84;;;13.45;61.34
60654;BME280;46476;53.614;10.048;2022-09-28T01:57:01;99233.81;;;13.42;61.16
60654;BME280;46476;53.614;10.048;2022-09-28T01:59:32;99240.50;;;13.39;61.23
60654;BME280;46476;53.614;10.048;2022-09-28T02:02:02;99232.56;;;13.38;61.60
60654;BME280;46476;53.614;10.048;2022-09-28T02:04:34;99232.94;;;13.34;61.23
60654;BME280;46476;53.614;10.048;2022-09-28T02:07:05;99237.56;;;13.34;61.22
60654;BME280;46476;53.614;10.048;2022-09-28T02:09:41;99229.59;;;13.32;61.32
60654;BME280;46476;53.614;10.048;2022-09-28T02:12:15;99229.59;;;13.32;61.24
60654;BME280;46476;53.614;10.048;2022-09-28T02:14:44;99237.75;;;13.32;61.13
60654;BME280;46476;53.614;10.048;2022-09-28T02:17:11;99226.25;;;13.30;60.99
60654;BME280;46476;53.614;10.048;2022-09-28T02:19:37;99224.13;;;13.26;61.06
60654;BME280;46476;53.614;10.048;2022-09-28T02:22:24;99231.69;;;13.24;61.13
60654;BME280;46476;53.614;10.048;2022-09-28T02:24:58;99221.41;;;13.19;60.99
60654;BME280;46476;53.614;10.048;2022-09-28T02:27:32;99219.13;;;13.16;61.08
60654;BME280;46476;53.614;10.048;2022-09-28T02:29:58;99224.13;;;13.12;60.96
60654;BME280;46476;53.614;10.048;2022-09-28T02:32:24;99224.34;;;13.11;61.00
60654;BME280;46476;53.614;10.048;2022-09-28T02:34:51;99216.56;;;13.08;60.92
60654;BME280;46476;53.614;10.048;2022-09-28T02:37:17;99223.25;;;13.05;61.10
60654;BME280;46476;53.614;10.048;2022-09-28T02:39:42;99228.91;;;13.03;61.03
60654;BME280;46476;53.614;10.048;2022-09-28T02:42:19;99217.63;;;13.07;61.16
60654;BME280;46476;53.614;10.048;2022-09-28T02:50:02;99220.75;;;13.10;61.30
60654;BME280;46476;53.614;10.048;2022-09-28T03:01:02;99211.19;;;13.14;61.59
60654;BME280;46476;53.614;10.048;2022-09-28T03:06:33;99216.41;;;13.16;61.18
60654;BME280;46476;53.614;10.048;2022-09-28T03:09:24;99216.63;;;13.14;61.00
60654;BME280;46476;53.614;10.048;2022-09-28T03:11:54;99221.81;;;13.09;61.25
60654;BME280;46476;53.614;10.048;2022-09-28T03:14:21;99218.69;;;13.06;61.13
60654;BME280;46476;53.614;10.048;2022-09-28T03:16:46;99223.06;;;13.07;61.13
60654;BME280;46476;53.614;10.048;2022-09-28T03:19:12;99217.63;;;13.07;61.19
60654;BME280;46476;53.614;10.048;2022-09-28T03:21:38;99211.13;;;13.08;61.01
60654;BME280;46476;53.614;10.048;2022-09-28T03:24:03;99208.41;;;13.08;61.08
60654;BME280;46476;53.614;10.048;2022-09-28T03:26:30;99213.03;;;13.07;61.01
60654;BME280;46476;53.614;10.048;2022-09-28T03:28:55;99206.34;;;13.03;61.07
60654;BME280;46476;53.614;10.048;2022-09-28T03:31:21;99211.13;;;13.01;60.96
60654;BME280;46476;53.614;10.048;2022-09-28T03:33:46;99206.94;;;12.98;60.98
60654;BME280;46476;53.614;10.048;2022-09-28T03:36:12;99207.38;;;12.95;60.96
60654;BME280;46476;53.614;10.048;2022-09-28T03:38:39;99204.00;;;12.93;61.09
60654;BME280;46476;53.614;10.048;2022-09-28T03:41:04;99208.19;;;12.96;61.04
60654;BME280;46476;53.614;10.048;2022-09-28T03:43:30;99202.75;;;12.96;61.04
60654;BME280;46476;53.614;10.048;2022-09-28T03:45:57;99200.25;;;12.94;61.09
60654;BME280;46476;53.614;10.048;2022-09-28T03:48:24;99203.19;;;12.93;61.15
60654;BME280;46476;53.614;10.048;2022-09-28T03:50:54;99200.44;;;12.86;61.23
60654;BME280;46476;53.614;10.048;2022-09-28T03:53:20;99199.41;;;12.87;61.01
60654;BME280;46476;53.614;10.048;2022-09-28T03:55:45;99202.75;;;12.89;61.16
60654;BME280;46476;53.614;10.048;2022-09-28T03:58:11;99206.09;;;12.91;61.23
60654;BME280;46476;53.614;10.048;2022-09-28T04:00:39;99200.47;;;12.93;60.87
60654;BME280;46476;53.614;10.048;2022-09-28T04:03:04;99197.09;;;12.91;60.92
60654;BME280;46476;53.614;10.048;2022-09-28T04:05:30;99197.09;;;12.91;61.25
60654;BME280;46476;53.614;10.048;2022-09-28T04:07:55;99196.47;;;12.88;61.05
60654;BME280;46476;53.614;10.048;2022-09-28T04:10:22;99199.41;;;12.87;61.19
60654;BME280;46476;53.614;10.048;2022-09-28T04:12:47;99202.13;;;12.87;61.21
60654;BME280;46476;53.614;10.048;2022-09-28T04:15:14;99206.47;;;12.81;61.24
60654;BME280;46476;53.614;10.048;2022-09-28T04:17:39;99203.53;;;12.69;61.73
60654;BME280;46476;53.614;10.048;2022-09-28T04:20:05;99201.00;;;12.68;61.94
60654;BME280;46476;53.614;10.048;2022-09-28T04:22:31;99199.53;;;12.65;61.75
60654;BME280;46476;53.614;10.048;2022-09-28T04:24:57;99198.06;;;12.63;61.86
60654;BME280;46476;53.614;10.048;2022-09-28T04:27:22;99194.31;;;12.57;62.00
60654;BME280;46476;53.614;10.048;2022-09-28T04:30:06;99212.00;;;12.53;62.24
60654;BME280;46476;53.614;10.048;2022-09-28T04:32:32;99203.03;;;12.52;62.29
60654;BME280;46476;53.614;10.048;2022-09-28T04:34:58;99202.84;;;12.61;62.33
60654;BME280;46476;53.614;10.048;2022-09-28T04:37:23;99202.66;;;12.62;62.12
60654;BME280;46476;53.614;10.048;2022-09-28T04:39:48;99204.94;;;12.59;62.09
60654;BME280;46476;53.614;10.048;2022-09-28T04:42:13;99203.28;;;12.64;62.30
60654;BME280;46476;53.614;10.048;2022-09-28T04:44:39;99206.88;;;12.71;62.10
60654;BME280;46476;53.614;10.048;2022-09-28T04:47:04;99209.81;;;12.77;61.76
60654;BME280;46476;53.614;10.048;2022-09-28T04:49:30;99201.63;;;12.70;61.50
60654;BME280;46476;53.614;10.048;2022-09-28T04:51:55;99213.13;;;12.65;61.82
60654;BME280;46476;53.614;10.048;2022-09-28T04:54:20;99210.41;;;12.65;61.66
60654;BME280;46476;53.614;10.048;2022-09-28T04:56:45;99203.72;;;12.68;61.91
60654;BME280;46476;53.614;10.048;2022-09-28T04:59:11;99203.28;;;12.64;62.05
60654;BME280;46476;53.614;10.048;2022-09-28T05:01:37;99204.53;;;12.62;61.93
60654;BME280;46476;53.614;10.048;2022-09-28T05:04:04;99215.59;;;12.60;62.23
60654;BME280;46476;53.614;10.048;2022-09-28T05:06:30;99210.19;;;12.60;62.14
60654;BME280;46476;53.614;10.048;2022-09-28T05:08:58;99208.06;;;12.62;62.22
60654;BME280;46476;53.614;10.048;2022-09-28T05:11:40;99207.66;;;12.59;62.21
60654;BME280;46476;53.614;10.048;2022-09-28T05:14:06;99210.63;;;12.64;62.76
60654;BME280;46476;53.614;10.048;2022-09-28T05:16:31;99206.03;;;12.71;63.09
60654;BME280;46476;53.614;10.048;2022-09-28T05:18:58;99212.78;;;12.82;62.86
60654;BME280;46476;53.614;10.048;2022-09-28T05:21:24;99211.09;;;12.81;62.06
60654;BME280;46476;53.614;10.048;2022-09-28T05:23:50;99208.38;;;12.81;62.04
60654;BME280;46476;53.614;10.048;2022-09-28T05:26:17;99205.47;;;12.96;61.76
60654;BME280;46476;53.614;10.048;2022-09-28T05:28:43;99209.88;;;13.03;61.37
60654;BME280;46476;53.614;10.048;2022-09-28T05:31:09;99214.25;;;12.98;61.46
60654;BME280;46476;53.614;10.048;2022-09-28T05:33:34;99209.44;;;12.93;61.82
60654;BME280;46476;53.614;10.048;2022-09-28T05:36:00;99204.66;;;12.95;61.63
60654;BME280;46476;53.614;10.048;2022-09-28T05:38:25;99206.94;;;13.05;61.19
60654;BME280;46476;53.614;10.048;2022-09-28T05:40:50;99202.16;;;13.14;61.13
60654;BME280;46476;53.614;10.048;2022-09-28T05:43:16;99206.13;;;13.11;60.98
60654;BME280;46476;53.614;10.048;2022-09-28T05:45:41;99207.16;;;13.03;60.84
60654;BME280;46476;53.614;10.048;2022-09-28T05:48:06;99208.19;;;12.96;61.21
60654;BME280;46476;53.614;10.048;2022-09-28T05:50:32;99201.94;;;13.02;61.21
60654;BME280;46476;53.614;10.048;2022-09-28T05:53:02;99205.28;;;12.97;60.92
60654;BME280;46476;53.614;10.048;2022-09-28T05:55:28;99206.56;;;13.01;60.88
60654;BME280;46476;53.614;10.048;2022-09-28T05:58:02;99213.25;;;13.06;60.83
60654;BME280;46476;53.614;10.048;2022-09-28T06:00:29;99214.06;;;13.06;60.44
60654;BME280;46476;53.614;10.048;2022-09-28T06:05:22;99213.47;;;13.11;60.64
60654;BME280;46476;53.614;10.048;2022-09-28T06:07:47;99217.00;;;13.11;60.52
60654;BME280;46476;53.614;10.048;2022-09-28T06:10:12;99215.97;;;13.12;60.63
60654;BME280;46476;53.614;10.048;2022-09-28T06:12:37;99215.38;;;13.17;60.36
60654;BME280;46476;53.614;10.048;2022-09-28T06:15:03;99209.06;;;13.10;60.34
60654;BME280;46476;53.614;10.048;2022-09-28T06:17:28;99208.03;;;13.04;60.33
60654;BME280;46476;53.614;10.048;2022-09-28T06:19:54;99209.44;;;13.00;60.50
60654;BME280;46476;53.614;10.048;2022-09-28T06:22:19;99212.59;;;13.03;60.54
60654;BME280;46476;53.614;10.048;2022-09-28T06:24:44;99219.09;;;13.09;60.30
60654;BME280;46476;53.614;10.048;2022-09-28T06:27:09;99218.88;;;13.04;60.00
60654;BME280;46476;53.614;10.048;2022-09-28T06:29:35;99213.03;;;13.00;60.26
60654;BME280;46476;53.614;10.048;2022-09-28T06:32:00;99214.28;;;13.04;60.32
60654;BME280;46476;53.614;10.048;2022-09-28T06:34:25;99221.78;;;13.02;60.38
60654;BME280;46476;53.614;10.048;2022-09-28T06:36:51;99220.31;;;12.93;61.05
60654;BME280;46476;53.614;10.048;2022-09-28T06:39:16;99230.75;;;12.90;60.82
60654;BME280;46476;53.614;10.048;2022-09-28T06:41:41;99233.66;;;12.88;60.64
60654;BME280;46476;53.614;10.048;2022-09-28T06:44:07;99237.84;;;12.84;60.87
60654;BME280;46476;53.614;10.048;2022-09-28T06:46:32;99233.44;;;12.83;60.69
60654;BME280;46476;53.614;10.048;2022-09-28T06:48:57;99234.06;;;12.85;61.32
60654;BME280;46476;53.614;10.048;2022-09-28T06:51:23;99238.88;;;12.83;61.23
60654;BME280;46476;53.614;10.048;2022-09-28T06:53:49;99240.75;;;12.82;60.92
60654;BME280;46476;53.614;10.048;2022-09-28T06:56:17;99256.00;;;12.77;60.94
60654;BME280;46476;53.614;10.048;2022-09-28T06:58:45;99247.41;;;12.73;61.20
60654;BME280;46476;53.614;10.048;2022-09-28T07:01:10;99243.84;;;12.73;61.21
60654;BME280;46476;53.614;10.048;2022-09-28T07:03:36;99251.19;;;12.79;60.88
60654;BME280;46476;53.614;10.048;2022-09-28T07:06:01;99248.50;;;12.85;60.83
60654;BME280;46476;53.614;10.048;2022-09-28T07:08:28;99246.66;;;12.93;60.61
60654;BME280;46476;53.614;10.048;2022-09-28T07:14:21;99251.63;;;12.82;60.33
60654;BME280;46476;53.614;10.048;2022-09-28T07:17:03;99253.44;;;12.68;60.78
60654;BME280;46476;53.614;10.048;2022-09-28T07:19:32;99260.50;;;12.56;61.17
60654;BME280;46476;53.614;10.048;2022-09-28T07:21:57;99263.22;;;12.56;61.27
60654;BME280;46476;53.614;10.048;2022-09-28T07:24:23;99265.72;;;12.58;61.22
60654;BME280;46476;53.614;10.048;2022-09-28T07:26:48;99261.13;;;12.58;61.52
60654;BME280;46476;53.614;10.048;2022-09-28T07:29:13;99269.13;;;12.66;61.42
60654;BME280;46476;53.614;10.048;2022-09-28T07:31:39;99266.22;;;12.75;61.28
60654;BME280;46476;53.614;10.048;2022-09-28T07:34:04;99272.53;;;12.82;60.86
60654;BME280;46476;53.614;10.048;2022-09-28T07:36:30;99266.25;;;12.88;60.52
60654;BME280;46476;53.614;10.048;2022-09-28T07:39:00;99276.53;;;12.93;59.93
60654;BME280;46476;53.614;10.048;2022-09-28T07:41:26;99276.97;;;12.96;60.20
60654;BME280;46476;53.614;10.048;2022-09-28T07:44:00;99272.78;;;12.94;60.00
60654;BME280;46476;53.614;10.048;2022-09-28T07:46:33;99277.13;;;12.88;60.23
60654;BME280;46476;53.614;10.048;2022-09-28T07:49:00;99276.28;;;12.81;60.49
60654;BME280;46476;53.614;10.048;2022-09-28T07:51:30;99273.34;;;12.82;60.60
60654;BME280;46476;53.614;10.048;2022-09-28T07:53:55;99284.25;;;12.89;60.44
60654;BME280;46476;53.614;10.048;2022-09-28T07:56:21;99284.03;;;12.91;60.54
60654;BME280;46476;53.614;10.048;2022-09-28T07:58:47;99285.91;;;12.90;60.50
60654;BME280;46476;53.614;10.048;2022-09-28T08:01:13;99281.72;;;12.81;60.64
60654;BME280;46476;53.614;10.048;2022-09-28T08:03:42;99291.69;;;12.74;60.81
60654;BME280;46476;53.614;10.048;2022-09-28T08:06:15;99290.84;;;12.66;60.86
60654;BME280;46476;53.614;10.048;2022-09-28T08:08:42;99295.44;;;12.73;60.87
60654;BME280;46476;53.614;10.048;2022-09-28T08:11:10;99291.91;;;12.79;60.49
60654;BME280;46476;53.614;10.048;2022-09-28T08:13:36;99296.56;;;12.85;60.15
60654;BME280;46476;53.614;10.048;2022-09-28T08:16:02;99292.59;;;12.87;60.17
60654;BME280;46476;53.614;10.048;2022-09-28T08:18:31;99293.81;;;12.78;60.17
60654;BME280;46476;53.614;10.048;2022-09-28T08:21:04;99295.44;;;12.73;60.37
60654;BME280;46476;53.614;10.048;2022-09-28T08:23:49;99296.28;;;12.66;60.68
60654;BME280;46476;53.614;10.048;2022-09-28T08:26:25;99300.03;;;12.65;60.60
60654;BME280;46476;53.614;10.048;2022-09-28T08:28:54;99305.66;;;12.64;61.05
60654;BME280;46476;53.614;10.048;2022-09-28T08:31:25;99311.13;;;12.70;60.81
60654;BME280;46476;53.614;10.048;2022-09-28T08:33:50;99318.06;;;12.80;60.35
60654;BME280;46476;53.614;10.048;2022-09-28T08:36:18;99318.06;;;12.80;60.43
60654;BME280;46476;53.614;10.048;2022-09-28T08:38:43;99313.88;;;12.77;60.47
60654;BME280;46476;53.614;10.048;2022-09-28T08:41:50;99308.78;;;12.67;60.39
60654;BME280;46476;53.614;10.048;2022-09-28T08:44:48;99313.81;;;12.64;60.86
60654;BME280;46476;53.614;10.048;2022-09-28T08:47:19;99311.72;;;12.73;60.81
60654;BME280;46476;53.614;10.048;2022-09-28T08:50:25;99313.06;;;12.83;60.81
60654;BME280;46476;53.614;10.048;2022-09-28T08:55:42;99322.13;;;12.97;60.79
60654;BME280;46476;53.614;10.048;2022-09-28T08:58:14;99322.75;;;13.06;60.30
60654;BME280;46476;53.614;10.048;2022-09-28T09:00:48;99319.44;;;13.11;59.96
60654;BME280;46476;53.614;10.048;2022-09-28T09:03:17;99321.31;;;13.10;60.09
60654;BME280;46476;53.614;10.048;2022-09-28T09:08:41;99331.13;;;13.11;60.13
60654;BME280;46476;53.614;10.048;2022-09-28T09:11:28;99328.22;;;13.13;60.28
60654;BME280;46476;53.614;10.048;2022-09-28T09:14:27;99332.84;;;13.19;60.08
60654;BME280;46476;53.614;10.048;2022-09-28T09:17:22;99331.59;;;13.21;59.96
60654;BME280;46476;53.614;10.048;2022-09-28T09:22:44;99328.22;;;13.13;59.38
60654;BME280;46476;53.614;10.048;2022-09-28T09:25:24;99335.28;;;13.00;59.82
60654;BME280;46476;53.614;10.048;2022-09-28T09:28:10;99332.56;;;13.00;60.25
60654;BME280;46476;53.614;10.048;2022-09-28T09:33:25;99326.94;;;13.09;60.27
60654;BME280;46476;53.614;10.048;2022-09-28T09:36:01;99330.94;;;13.13;60.36
60654;BME280;46476;53.614;10.048;2022-09-28T09:46:58;99338.69;;;13.09;60.12
60654;BME280;46476;53.614;10.048;2022-09-28T09:49:45;99340.75;;;13.14;60.25
60654;BME280;46476;53.614;10.048;2022-09-28T09:52:23;99334.53;;;13.20;60.22
60654;BME280;46476;53.614;10.048;2022-09-28T09:54:59;99343.34;;;13.29;60.21
60654;BME280;46476;53.614;10.048;2022-09-28T09:57:37;99343.78;;;13.32;59.82
60654;BME280;46476;53.614;10.048;2022-09-28T10:00:13;99338.19;;;13.41;59.59
60654;BME280;46476;53.614;10.048;2022-09-28T10:02:39;99339.44;;;13.45;59.69
60654;BME280;46476;53.614;10.048;2022-09-28T10:07:52;99341.78;;;13.55;59.14
60654;BME280;46476;53.614;10.048;2022-09-28T10:10:32;99338.19;;;13.54;59.24
60654;BME280;46476;53.614;10.048;2022-09-28T10:13:00;99340.09;;;13.60;59.55
60654;BME280;46476;53.614;10.048;2022-09-28T10:15:28;99336.34;;;13.68;59.47
60654;BME280;46476;53.614;10.048;2022-09-28T10:17:57;99343.06;;;13.72;58.95
60654;BME280;46476;53.614;10.048;2022-09-28T10:20:24;99334.28;;;13.77;58.83
60654;BME280;46476;53.614;10.048;2022-09-28T10:22:50;99333.84;;;13.80;58.54
60654;BME280;46476;53.614;10.048;2022-09-28T10:25:17;99338.69;;;13.78;58.71
60654;BME280;46476;53.614;10.048;2022-09-28T10:27:45;99346.00;;;13.77;58.76
60654;BME280;46476;53.614;10.048;2022-09-28T10:30:19;99342.66;;;13.82;58.81
60654;BME280;46476;53.614;10.048;2022-09-28T10:32:46;99341.41;;;13.84;58.79
60654;BME280;46476;53.614;10.048;2022-09-28T10:35:20;99346.63;;;13.93;58.99
60654;BME280;46476;53.614;10.048;2022-09-28T10:43:26;99342.03;;;14.13;58.20
60654;BME280;46476;53.614;10.048;2022-09-28T10:46:10;99346.00;;;14.17;58.26
60654;BME280;46476;53.614;10.048;2022-09-28T10:48:59;99342.69;;;14.15;58.09
60654;BME280;46476;53.614;10.048;2022-09-28T10:51:59;99335.34;;;14.16;57.82
60654;BME280;46476;53.614;10.048;2022-09-28T10:54:29;99343.06;;;14.19;57.40
60654;BME280;46476;53.614;10.048;2022-09-28T10:56:56;99341.44;;;14.18;56.96
60654;BME280;46476;53.614;10.048;2022-09-28T11:02:02;99342.66;;;14.29;56.76
60654;BME280;46476;53.614;10.048;2022-09-28T11:04:35;99334.72;;;14.34;57.02
60654;BME280;46476;53.614;10.048;2022-09-28T11:07:02;99343.47;;;14.36;57.48
60654;BME280;46476;53.614;10.048;2022-09-28T11:09:31;99334.69;;;14.41;57.89
60654;BME280;46476;53.614;10.048;2022-09-28T11:11:58;99339.72;;;14.44;58.03
60654;BME280;46476;53.614;10.048;2022-09-28T11:14:32;99343.06;;;14.46;58.13
60654;BME280;46476;53.614;10.048;2022-09-28T11:19:56;99347.25;;;14.48;57.46
60654;BME280;46476;53.614;10.048;2022-09-28T11:27:54;99344.75;;;14.47;57.98
60654;BME280;46476;53.614;10.048;2022-09-28T11:32:46;99340.97;;;14.48;57.55
60654;BME280;46476;53.614;10.048;2022-09-28T11:35:21;99344.53;;;14.48;57.41
60654;BME280;46476;53.614;10.048;2022-09-28T11:38:08;99341.59;;;14.50;56.84
60654;BME280;46476;53.614;10.048;2022-09-28T11:40:46;99351.44;;;14.51;57.32
60654;BME280;46476;53.614;10.048;2022-09-28T11:48:58;99347.22;;;14.62;56.91
60654;BME280;46476;53.614;10.048;2022-09-28T11:51:26;99343.88;;;14.60;57.06
60654;BME280;46476;53.614;10.048;2022-09-28T11:53:59;99351.84;;;14.61;56.52
60654;BME280;46476;53.614;10.048;2022-09-28T11:56:35;99346.84;;;14.58;56.14
60654;BME280;46476;53.614;10.048;2022-09-28T11:59:08;99349.13;;;14.61;55.86
60654;BME280;46476;53.614;10.048;2022-09-28T12:01:41;99349.94;;;14.62;56.02
60654;BME280;46476;53.614;10.048;2022-09-28T12:04:19;99352.28;;;14.65;55.97
60654;BME280;46476;53.614;10.048;2022-09-28T12:07:03;99345.78;;;14.66;55.87
60654;BME280;46476;53.614;10.048;2022-09-28T12:09:41;99357.31;;;14.68;55.30
60654;BME280;46476;53.614;10.048;2022-09-28T12:12:23;99361.06;;;14.67;55.18
60654;BME280;46476;53.614;10.048;2022-09-28T12:14:52;99357.06;;;14.63;55.33
60654;BME280;46476;53.614;10.048;2022-09-28T12:17:24;99361.28;;;14.65;55.48
60654;BME280;46476;53.614;10.048;2022-09-28T12:20:33;99356.06;;;14.64;55.41
60654;BME280;46476;53.614;10.048;2022-09-28T12:23:12;99363.34;;;14.63;55.31
60654;BME280;46476;53.614;10.048;2022-09-28T12:25:42;99360.63;;;14.63;55.37
60654;BME280;46476;53.614;10.048;2022-09-28T12:30:55;99356.25;;;14.62;54.96
60654;BME280;46476;53.614;10.048;2022-09-28T12:33:22;99362.34;;;14.64;54.92
60654;BME280;46476;53.614;10.048;2022-09-28T12:36:29;99363.78;;;14.67;55.05
60654;BME280;46476;53.614;10.048;2022-09-28T12:39:14;99364.66;;;14.67;54.88
60654;BME280;46476;53.614;10.048;2022-09-28T12:41:59;99366.72;;;14.72;55.13
60654;BME280;46476;53.614;10.048;2022-09-28T13:06:50;99373.38;;;14.96;53.24
60654;BME280;46476;53.614;10.048;2022-09-28T13:09:21;99369.81;;;14.96;52.88
60654;BME280;46476;53.614;10.048;2022-09-28T13:17:05;99367.47;;;15.06;52.96
60654;BME280;46476;53.614;10.048;2022-09-28T13:19:56;99368.91;;;15.09;52.16
60654;BME280;46476;53.614;10.048;2022-09-28T13:22:37;99373.31;;;15.10;52.07
60654;BME280;46476;53.614;10.048;2022-09-28T13:25:12;99371.88;;;15.07;51.74
60654;BME280;46476;53.614;10.048;2022-09-28T13:27:50;99369.13;;;15.07;51.67
60654;BME280;46476;53.614;10.048;2022-09-28T13:30:17;99371.44;;;15.10;52.11
60654;BME280;46476;53.614;10.048;2022-09-28T13:32:44;99374.56;;;15.14;51.58
60654;BME280;46476;53.614;10.048;2022-09-28T13:35:16;99368.06;;;15.15;50.80
60654;BME280;46476;53.614;10.048;2022-09-28T13:37:46;99370.78;;;15.15;51.07
60654;BME280;46476;53.614;10.048;2022-09-28T13:40:12;99371.84;;;15.14;51.36
60654;BME280;46476;53.614;10.048;2022-09-28T13:42:56;99371.44;;;15.17;51.20
60654;BME280;46476;53.614;10.048;2022-09-28T13:45:29;99374.56;;;15.21;51.47
60654;BME280;46476;53.614;10.048;2022-09-28T13:48:16;99382.50;;;15.29;52.57
60654;BME280;46476;53.614;10.048;2022-09-28T13:56:35;99374.38;;;15.54;51.19
60654;BME280;46476;53.614;10.048;2022-09-28T14:04:59;99381.34;;;15.50;51.05
60654;BME280;46476;53.614;10.048;2022-09-28T14:10:18;99382.84;;;15.46;50.91
60654;BME280;46476;53.614;10.048;2022-09-28T14:12:55;99378.66;;;15.43;50.91
60654;BME280;46476;53.614;10.048;2022-09-28T14:15:39;99382.66;;;15.41;51.11
60654;BME280;46476;53.614;10.048;2022-09-28T14:29:37;99392.94;;;15.32;51.55
60654;BME280;46476;53.614;10.048;2022-09-28T14:34:41;99388.56;;;15.31;51.91
60654;BME280;46476;53.614;10.048;2022-09-28T14:37:24;99391.09;;;15.32;52.01
60654;BME280;46476;53.614;10.048;2022-09-28T14:40:22;99394.84;;;15.31;51.92
60654;BME280;46476;53.614;10.048;2022-09-28T14:48:58;99403.66;;;15.33;51.79
60654;BME280;46476;53.614;10.048;2022-09-28T14:59:29;99400.50;;;15.37;51.47
60654;BME280;46476;53.614;10.048;2022-09-28T15:02:21;99400.28;;;15.38;51.80
60654;BME280;46476;53.614;10.048;2022-09-28T15:04:56;99399.00;;;15.41;51.06
60654;BME280;46476;53.614;10.048;2022-09-28T15:07:45;99398.41;;;15.39;50.74
60654;BME280;46476;53.614;10.048;2022-09-28T15:10:37;99400.06;;;15.40;51.15
60654;BME280;46476;53.614;10.048;2022-09-28T15:13:25;99408.69;;;15.37;51.30
60654;BME280;46476;53.614;10.048;2022-09-28T15:16:02;99414.13;;;15.37;51.25
60654;BME280;46476;53.614;10.048;2022-09-28T15:18:43;99400.09;;;15.33;51.17
60654;BME280;46476;53.614;10.048;2022-09-28T15:21:16;99402.81;;;15.33;51.04
60654;BME280;46476;53.614;10.048;2022-09-28T15:24:02;99406.59;;;15.32;50.99
60654;BME280;46476;53.614;10.048;2022-09-28T15:26:33;99410.59;;;15.29;50.98
60654;BME280;46476;53.614;10.048;2022-09-28T15:29:16;99414.81;;;15.25;51.25
60654;BME280;46476;53.614;10.048;2022-09-28T15:32:23;99409.34;;;15.25;51.64
60654;BME280;46476;53.614;10.048;2022-09-28T15:35:24;99417.97;;;15.22;51.90
60654;BME280;46476;53.614;10.048;2022-09-28T15:37:51;99415.66;;;15.19;52.37
60654;BME280;46476;53.614;10.048;2022-09-28T15:40:24;99419.25;;;15.20;52.12
60654;BME280;46476;53.614;10.048;2022-09-28T15:42:52;99421.75;;;15.21;51.84
60654;BME280;46476;53.614;10.048;2022-09-28T15:45:39;99426.38;;;15.21;52.20